Time;durP1;ratioP1;P1;durP2;ratioP2;P2;SDS_P1;SDS_P2;PMS_P1;PMS_P2;Temp;Humidity;BMP_temperature;BMP_pressure;BME280_temperature;BME280_humidity;BME280_pressure;Samples;Min_cycle;Max_cycle;Signal;HPM_P1;HPM_P2
2021/06/01 00:00:22;;;;;;;16.77;12.80;;;;;;;;;;5001121;28;20092;-68
2021/06/01 00:02:48;;;;;;;17.98;13.13;;;;;;;;;;5001266;28;20413;-68
2021/06/01 00:05:15;;;;;;;20.15;13.10;;;;;;;;;;5003615;28;20079;-68
2021/06/01 00:07:41;;;;;;;19.48;11.90;;;;;;;;;;5004555;28;20066;-68
2021/06/01 00:10:08;;;;;;;18.30;13.23;;;;;;;;;;5003408;28;20093;-68
2021/06/01 00:12:35;;;;;;;19.63;13.10;;;;;;;;;;5000485;28;20842;-68
2021/06/01 00:15:01;;;;;;;20.70;12.82;;;;;;;;;;5004879;28;20552;-68
2021/06/01 00:17:27;;;;;;;21.10;14.23;;;;;;;;;;5008428;28;20481;-68
2021/06/01 00:19:54;;;;;;;22.10;14.38;;;;;;;;;;5009164;28;20058;-69
2021/06/01 00:22:21;;;;;;;17.52;13.27;;;;;;;;;;5001550;28;20095;-68
2021/06/01 00:24:47;;;;;;;18.40;13.40;;;;;;;;;;5002393;28;20042;-68
2021/06/01 00:27:13;;;;;;;18.88;13.38;;;;;;;;;;5002011;28;20133;-68
2021/06/01 00:29:39;;;;;;;22.42;13.60;;;;;;;;;;5002399;28;20094;-68
2021/06/01 00:32:07;;;;;;;17.80;12.55;;;;;;;;;;5004389;28;20643;-68
2021/06/01 00:34:33;;;;;;;26.10;13.75;;;;;;;;;;5017217;28;20092;-68
2021/06/01 00:37:00;;;;;;;20.00;12.68;;;;;;;;;;5028471;28;20143;-68
2021/06/01 00:39:26;;;;;;;17.98;12.88;;;;;;;;;;5025501;28;20093;-68
2021/06/01 00:41:52;;;;;;;17.52;13.35;;;;;;;;;;5022310;28;20045;-68
2021/06/01 00:44:19;;;;;;;20.02;13.63;;;;;;;;;;5024692;28;20386;-68
2021/06/01 00:46:45;;;;;;;20.65;12.82;;;;;;;;;;5023270;28;20073;-68
2021/06/01 00:49:12;;;;;;;19.60;12.68;;;;;;;;;;5025105;28;20449;-68
2021/06/01 00:51:39;;;;;;;20.67;13.43;;;;;;;;;;5024341;28;20041;-68
2021/06/01 00:54:05;;;;;;;22.15;13.00;;;;;;;;;;5025369;28;20052;-68
2021/06/01 00:56:32;;;;;;;18.67;13.65;;;;;;;;;;5024664;28;20153;-68
2021/06/01 00:58:58;;;;;;;22.70;13.85;;;;;;;;;;5021604;28;21945;-68
2021/06/01 01:01:24;;;;;;;20.90;13.85;;;;;;;;;;5025308;28;20042;-68
2021/06/01 01:03:51;;;;;;;19.15;13.85;;;;;;;;;;5022879;28;20029;-68
2021/06/01 01:06:30;;;;;;;19.13;13.40;;;;;;;;;;5023197;28;20844;-68
2021/06/01 01:08:58;;;;;;;21.95;13.90;;;;;;;;;;5023270;28;20052;-68
2021/06/01 01:11:40;;;;;;;20.35;13.73;;;;;;;;;;5026071;28;20037;-68
2021/06/01 01:14:16;;;;;;;22.73;14.93;;;;;;;;;;5027396;28;20053;-68
2021/06/01 01:16:46;;;;;;;21.42;13.63;;;;;;;;;;5026125;28;20045;-68
2021/06/01 01:19:14;;;;;;;21.55;15.18;;;;;;;;;;5026774;28;20417;-68
2021/06/01 01:21:46;;;;;;;26.27;14.50;;;;;;;;;;5025340;28;20037;-68
2021/06/01 01:24:21;;;;;;;25.92;14.85;;;;;;;;;;5024836;28;20048;-68
2021/06/01 01:26:51;;;;;;;21.10;14.00;;;;;;;;;;5007033;28;20046;-68
2021/06/01 01:29:43;;;;;;;19.38;14.55;;;;;;;;;;5023759;28;20060;-68
2021/06/01 01:32:18;;;;;;;22.23;13.98;;;;;;;;;;5023837;28;20107;-68
2021/06/01 01:34:44;;;;;;;17.95;12.77;;;;;;;;;;5024610;28;20084;-68
2021/06/01 01:37:10;;;;;;;24.23;13.85;;;;;;;;;;5020982;28;20068;-68
2021/06/01 01:39:43;;;;;;;20.67;14.13;;;;;;;;;;5031080;28;20077;-68
2021/06/01 01:42:12;;;;;;;20.58;13.85;;;;;;;;;;5031256;28;20042;-68
2021/06/01 01:44:47;;;;;;;25.58;15.10;;;;;;;;;;5025148;28;20062;-68
2021/06/01 01:50:01;;;;;;;18.20;13.98;;;;;;;;;;5029750;28;20045;-68
2021/06/01 01:52:28;;;;;;;19.75;13.43;;;;;;;;;;5028884;28;20334;-68
2021/06/01 01:54:55;;;;;;;21.00;14.73;;;;;;;;;;5025802;28;20404;-68
2021/06/01 01:57:22;;;;;;;18.35;14.18;;;;;;;;;;5028613;28;20504;-68
2021/06/01 01:59:49;;;;;;;18.98;13.90;;;;;;;;;;5007811;28;20053;-68
2021/06/01 02:02:16;;;;;;;20.13;14.63;;;;;;;;;;5026216;28;20111;-68
2021/06/01 02:04:42;;;;;;;22.52;14.75;;;;;;;;;;5006187;28;20136;-68
2021/06/01 02:07:09;;;;;;;16.60;13.07;;;;;;;;;;5024802;28;20500;-68
2021/06/01 02:09:35;;;;;;;18.90;13.85;;;;;;;;;;5025465;28;20053;-68
2021/06/01 02:12:02;;;;;;;25.63;14.90;;;;;;;;;;5029217;28;20049;-68
2021/06/01 02:14:28;;;;;;;19.25;14.35;;;;;;;;;;5030853;28;20090;-68
2021/06/01 02:16:57;;;;;;;23.17;14.85;;;;;;;;;;5028947;28;20086;-68
2021/06/01 02:19:23;;;;;;;22.88;14.57;;;;;;;;;;5026630;28;20037;-68
2021/06/01 02:24:18;;;;;;;23.45;14.18;;;;;;;;;;5025411;28;20060;-68
2021/06/01 02:26:52;;;;;;;20.85;14.60;;;;;;;;;;5028624;28;20037;-68
2021/06/01 02:29:22;;;;;;;22.70;13.70;;;;;;;;;;5024494;28;20052;-68
2021/06/01 02:31:50;;;;;;;22.40;14.93;;;;;;;;;;5026614;28;20046;-68
2021/06/01 02:34:18;;;;;;;23.08;14.63;;;;;;;;;;5027102;28;20043;-68
2021/06/01 02:36:44;;;;;;;23.90;14.55;;;;;;;;;;5025231;28;20037;-68
2021/06/01 02:39:12;;;;;;;24.38;14.35;;;;;;;;;;5024517;28;20099;-68
2021/06/01 02:41:38;;;;;;;24.10;15.13;;;;;;;;;;5025215;28;20045;-68
2021/06/01 02:44:05;;;;;;;26.15;14.70;;;;;;;;;;5025143;28;20044;-68
2021/06/01 02:46:31;;;;;;;21.48;13.95;;;;;;;;;;5032629;28;20080;-68
2021/06/01 02:48:57;;;;;;;28.00;14.38;;;;;;;;;;5029789;28;20053;-68
2021/06/01 02:51:24;;;;;;;22.25;13.27;;;;;;;;;;5026102;28;20049;-68
2021/06/01 02:53:52;;;;;;;20.25;13.45;;;;;;;;;;5028287;28;20050;-68
2021/06/01 02:56:19;;;;;;;21.85;14.48;;;;;;;;;;5029837;28;20112;-68
2021/06/01 02:58:46;;;;;;;19.20;14.43;;;;;;;;;;5030009;28;20053;-68
2021/06/01 03:01:14;;;;;;;19.40;13.75;;;;;;;;;;5024727;28;20528;-68
2021/06/01 03:03:47;;;;;;;21.45;14.02;;;;;;;;;;5025490;28;20054;-68
2021/06/01 03:06:13;;;;;;;21.17;14.10;;;;;;;;;;5022653;28;20052;-68
2021/06/01 03:08:40;;;;;;;22.92;14.25;;;;;;;;;;5008856;28;20122;-68
2021/06/01 03:11:07;;;;;;;19.45;13.45;;;;;;;;;;5024810;28;20061;-68
2021/06/01 03:13:33;;;;;;;21.98;14.38;;;;;;;;;;5026445;28;20045;-67
2021/06/01 03:15:59;;;;;;;21.65;12.88;;;;;;;;;;5023202;28;20046;-68
2021/06/01 03:18:26;;;;;;;22.02;13.60;;;;;;;;;;5026597;28;20598;-68
2021/06/01 03:20:52;;;;;;;19.00;13.73;;;;;;;;;;5013657;28;20037;-68
2021/06/01 03:23:19;;;;;;;22.55;13.35;;;;;;;;;;5026179;28;20385;-68
2021/06/01 03:25:45;;;;;;;22.85;13.57;;;;;;;;;;5024532;28;20041;-68
2021/06/01 03:28:12;;;;;;;21.88;14.18;;;;;;;;;;5018616;28;20453;-68
2021/06/01 03:30:39;;;;;;;18.70;13.50;;;;;;;;;;5020416;28;20104;-68
2021/06/01 03:33:05;;;;;;;24.92;14.60;;;;;;;;;;5020247;28;20061;-68
2021/06/01 03:35:31;;;;;;;16.70;13.13;;;;;;;;;;5019780;28;20049;-68
2021/06/01 03:37:58;;;;;;;20.08;13.43;;;;;;;;;;5014457;28;20087;-68
2021/06/01 03:40:24;;;;;;;19.95;14.75;;;;;;;;;;5025217;28;20033;-68
2021/06/01 03:42:51;;;;;;;22.50;13.15;;;;;;;;;;5027491;28;20045;-68
2021/06/01 03:45:18;;;;;;;20.85;13.90;;;;;;;;;;5003932;28;20045;-68
2021/06/01 03:47:45;;;;;;;18.77;12.80;;;;;;;;;;5019819;28;20177;-68
2021/06/01 03:50:11;;;;;;;20.55;13.07;;;;;;;;;;5025838;28;20052;-68
2021/06/01 03:52:38;;;;;;;20.90;13.88;;;;;;;;;;5023215;28;20081;-68
2021/06/01 03:55:06;;;;;;;18.58;13.18;;;;;;;;;;5022329;28;20417;-68
2021/06/01 03:57:32;;;;;;;25.48;14.70;;;;;;;;;;5026749;28;20053;-68
2021/06/01 03:59:59;;;;;;;20.88;14.30;;;;;;;;;;5025920;28;20136;-68
2021/06/01 04:02:25;;;;;;;18.80;13.73;;;;;;;;;;5024012;28;20048;-68
2021/06/01 04:04:52;;;;;;;21.90;13.25;;;;;;;;;;5029065;28;20065;-68
2021/06/01 04:07:18;;;;;;;18.55;12.98;;;;;;;;;;5022647;28;20049;-68
2021/06/01 04:09:44;;;;;;;21.05;13.60;;;;;;;;;;5026686;28;20060;-68
2021/06/01 04:12:11;;;;;;;21.83;13.73;;;;;;;;;;5023138;28;20050;-68
2021/06/01 04:14:38;;;;;;;22.77;13.50;;;;;;;;;;5024698;28;20050;-68
2021/06/01 04:17:04;;;;;;;21.58;13.63;;;;;;;;;;5025687;28;20404;-68
2021/06/01 04:19:32;;;;;;;26.38;14.65;;;;;;;;;;5026051;28;20045;-68
2021/06/01 04:21:59;;;;;;;19.75;13.10;;;;;;;;;;5002178;28;20229;-68
2021/06/01 04:24:27;;;;;;;24.80;14.48;;;;;;;;;;5019260;28;20045;-68
2021/06/01 04:26:54;;;;;;;22.60;14.02;;;;;;;;;;5020151;28;20048;-68
2021/06/01 04:29:20;;;;;;;20.67;13.88;;;;;;;;;;5023710;28;20460;-68
2021/06/01 04:31:47;;;;;;;20.52;13.43;;;;;;;;;;5010905;28;20045;-68
2021/06/01 04:34:13;;;;;;;20.08;13.90;;;;;;;;;;5023296;28;20069;-69
2021/06/01 04:36:39;;;;;;;20.80;13.45;;;;;;;;;;5022172;28;20603;-68
2021/06/01 04:39:06;;;;;;;21.00;13.90;;;;;;;;;;5024273;28;20052;-68
2021/06/01 04:41:32;;;;;;;20.50;13.73;;;;;;;;;;5022943;28;20075;-68
2021/06/01 04:43:58;;;;;;;19.58;14.18;;;;;;;;;;5020036;28;20081;-68
2021/06/01 04:46:25;;;;;;;20.98;14.82;;;;;;;;;;5023762;28;20152;-68
2021/06/01 04:48:51;;;;;;;20.50;14.10;;;;;;;;;;5021726;28;21343;-68
2021/06/01 04:51:18;;;;;;;20.35;13.85;;;;;;;;;;5025702;28;20409;-68
2021/06/01 04:53:45;;;;;;;20.63;13.65;;;;;;;;;;5029375;28;20514;-68
2021/06/01 04:56:12;;;;;;;24.73;13.43;;;;;;;;;;5021895;28;20054;-68
2021/06/01 04:58:38;;;;;;;20.95;14.05;;;;;;;;;;5026542;28;20447;-68
2021/06/01 05:01:05;;;;;;;21.73;14.25;;;;;;;;;;5022803;28;20162;-68
2021/06/01 05:03:31;;;;;;;26.83;14.88;;;;;;;;;;5006063;28;20071;-68
2021/06/01 05:05:57;;;;;;;21.92;14.18;;;;;;;;;;5025995;28;20534;-68
2021/06/01 05:08:23;;;;;;;22.00;13.63;;;;;;;;;;5024286;28;21230;-68
2021/06/01 05:10:50;;;;;;;19.77;12.98;;;;;;;;;;5020874;28;20442;-68
2021/06/01 05:13:16;;;;;;;21.70;14.02;;;;;;;;;;5006449;28;20187;-68
2021/06/01 05:15:44;;;;;;;23.13;13.75;;;;;;;;;;5020818;28;20099;-68
2021/06/01 05:18:10;;;;;;;22.38;13.27;;;;;;;;;;5024026;28;20672;-68
2021/06/01 05:20:37;;;;;;;19.92;12.43;;;;;;;;;;5021760;28;20045;-67
2021/06/01 05:23:03;;;;;;;20.10;12.40;;;;;;;;;;5021718;28;20038;-68
2021/06/01 05:25:29;;;;;;;25.52;14.57;;;;;;;;;;5005027;28;20053;-68
2021/06/01 05:27:56;;;;;;;18.23;12.10;;;;;;;;;;5025605;28;20049;-68
2021/06/01 05:30:30;;;;;;;19.30;13.30;;;;;;;;;;5014643;28;20117;-68
2021/06/01 05:33:14;;;;;;;18.10;12.27;;;;;;;;;;5013839;28;20042;-68
2021/06/01 05:35:54;;;;;;;19.60;12.70;;;;;;;;;;5025093;28;20106;-68
2021/06/01 05:38:21;;;;;;;17.95;11.50;;;;;;;;;;5025525;28;20069;-68
2021/06/01 05:40:48;;;;;;;17.17;11.25;;;;;;;;;;5020947;28;20106;-68
2021/06/01 05:43:14;;;;;;;17.75;10.82;;;;;;;;;;5022226;28;20064;-68
2021/06/01 05:45:41;;;;;;;16.48;10.63;;;;;;;;;;5023140;28;20210;-68
2021/06/01 05:48:08;;;;;;;18.58;9.80;;;;;;;;;;5021004;28;20041;-68
2021/06/01 05:50:35;;;;;;;16.25;10.93;;;;;;;;;;5023334;28;20412;-68
2021/06/01 05:53:02;;;;;;;14.52;9.77;;;;;;;;;;5022412;28;20119;-68
2021/06/01 05:55:28;;;;;;;14.80;9.70;;;;;;;;;;5007862;28;20069;-68
2021/06/01 05:57:55;;;;;;;15.57;9.98;;;;;;;;;;5020985;28;20038;-68
2021/06/01 06:00:22;;;;;;;13.27;9.38;;;;;;;;;;5024492;28;20054;-68
2021/06/01 06:02:48;;;;;;;13.18;9.05;;;;;;;;;;5021716;28;20132;-68
2021/06/01 06:05:15;;;;;;;13.63;9.35;;;;;;;;;;5006373;28;20057;-68
2021/06/01 06:07:41;;;;;;;16.48;8.95;;;;;;;;;;5000741;28;20120;-68
2021/06/01 06:10:08;;;;;;;17.08;9.77;;;;;;;;;;5024833;28;20125;-68
2021/06/01 06:12:35;;;;;;;15.45;8.73;;;;;;;;;;5030356;28;20042;-68
2021/06/01 06:15:02;;;;;;;12.63;8.32;;;;;;;;;;5025135;28;20152;-68
2021/06/01 06:17:40;;;;;;;13.10;8.48;;;;;;;;;;5029736;28;20037;-68
2021/06/01 06:20:07;;;;;;;13.40;8.80;;;;;;;;;;5028604;28;20051;-68
2021/06/01 06:22:33;;;;;;;12.15;9.15;;;;;;;;;;5029666;28;20071;-68
2021/06/01 06:25:00;;;;;;;11.38;7.95;;;;;;;;;;5020430;28;20038;-68
2021/06/01 06:27:29;;;;;;;14.43;9.10;;;;;;;;;;5029200;28;20053;-68
2021/06/01 06:29:55;;;;;;;13.02;8.27;;;;;;;;;;5029028;28;20041;-68
2021/06/01 06:32:21;;;;;;;13.90;8.25;;;;;;;;;;5028029;28;20079;-68
2021/06/01 06:34:47;;;;;;;12.93;7.30;;;;;;;;;;5029020;28;20130;-68
2021/06/01 06:37:14;;;;;;;11.15;6.80;;;;;;;;;;5029111;28;20117;-68
2021/06/01 06:39:41;;;;;;;16.08;7.97;;;;;;;;;;5029028;28;20117;-68
2021/06/01 06:42:07;;;;;;;13.13;7.32;;;;;;;;;;5028239;28;20113;-68
2021/06/01 06:44:36;;;;;;;10.82;7.00;;;;;;;;;;5029065;28;20045;-68
2021/06/01 06:47:17;;;;;;;13.00;7.35;;;;;;;;;;5025836;28;20037;-68
2021/06/01 06:49:47;;;;;;;12.40;7.32;;;;;;;;;;5022532;28;20042;-68
2021/06/01 06:52:14;;;;;;;13.45;7.40;;;;;;;;;;5028129;28;20049;-68
2021/06/01 06:54:40;;;;;;;10.77;6.90;;;;;;;;;;5029685;28;20037;-68
2021/06/01 06:57:07;;;;;;;10.93;6.55;;;;;;;;;;5028134;28;20133;-68
2021/06/01 06:59:34;;;;;;;11.90;7.30;;;;;;;;;;5028985;28;20149;-68
2021/06/01 07:02:00;;;;;;;12.77;6.93;;;;;;;;;;5028076;28;20544;-68
2021/06/01 07:04:27;;;;;;;13.90;7.40;;;;;;;;;;4999248;28;20042;-68
2021/06/01 07:06:54;;;;;;;10.40;6.70;;;;;;;;;;5029145;28;20049;-68
2021/06/01 07:09:20;;;;;;;10.63;6.97;;;;;;;;;;5027891;28;20117;-69
2021/06/01 07:11:46;;;;;;;14.32;6.47;;;;;;;;;;5028181;28;20041;-68
2021/06/01 07:14:17;;;;;;;9.65;6.10;;;;;;;;;;5028375;28;20457;-66
2021/06/01 07:16:44;;;;;;;10.82;6.22;;;;;;;;;;5027522;28;20056;-67
2021/06/01 07:19:11;;;;;;;15.27;6.70;;;;;;;;;;5002901;28;20088;-67
2021/06/01 07:21:37;;;;;;;10.45;6.97;;;;;;;;;;5023219;28;20037;-66
2021/06/01 07:24:05;;;;;;;12.80;6.60;;;;;;;;;;5028648;28;20124;-67
2021/06/01 07:26:31;;;;;;;10.05;6.07;;;;;;;;;;5024504;28;20060;-66
2021/06/01 07:29:10;;;;;;;10.50;5.95;;;;;;;;;;5025133;28;20056;-66
2021/06/01 07:31:56;;;;;;;9.23;6.22;;;;;;;;;;5012252;28;20091;-66
2021/06/01 07:34:23;;;;;;;13.13;6.20;;;;;;;;;;5027288;28;20049;-66
2021/06/01 07:37:10;;;;;;;11.45;5.65;;;;;;;;;;5010776;28;20358;-66
2021/06/01 07:39:56;;;;;;;13.35;6.50;;;;;;;;;;5013272;28;20548;-66
2021/06/01 07:42:25;;;;;;;10.05;4.70;;;;;;;;;;5025647;28;20454;-66
2021/06/01 07:44:52;;;;;;;9.80;5.70;;;;;;;;;;5027181;28;20406;-66
2021/06/01 07:47:18;;;;;;;10.23;5.03;;;;;;;;;;5025564;28;20432;-67
2021/06/01 07:49:45;;;;;;;9.68;5.15;;;;;;;;;;5018110;28;20523;-66
2021/06/01 07:52:11;;;;;;;8.80;4.97;;;;;;;;;;5026485;28;20049;-67
2021/06/01 07:54:39;;;;;;;9.27;5.50;;;;;;;;;;5025653;28;20142;-66
2021/06/01 07:57:05;;;;;;;9.75;4.65;;;;;;;;;;5018600;28;20082;-67
2021/06/01 07:59:40;;;;;;;10.30;4.95;;;;;;;;;;5015710;28;20057;-67
2021/06/01 08:02:07;;;;;;;7.13;4.13;;;;;;;;;;5019398;28;20067;-67
2021/06/01 08:04:40;;;;;;;9.32;4.40;;;;;;;;;;5023353;28;20049;-67
2021/06/01 08:07:08;;;;;;;7.78;4.20;;;;;;;;;;5024070;28;20046;-67
2021/06/01 08:09:35;;;;;;;7.95;3.80;;;;;;;;;;5021485;28;20472;-67
2021/06/01 08:12:03;;;;;;;7.60;4.50;;;;;;;;;;5018225;28;20072;-67
2021/06/01 08:14:42;;;;;;;6.97;4.47;;;;;;;;;;5017704;28;20061;-67
2021/06/01 08:17:14;;;;;;;7.15;3.90;;;;;;;;;;5019301;28;20046;-67
2021/06/01 08:19:44;;;;;;;7.10;3.55;;;;;;;;;;5024601;28;20156;-67
2021/06/01 08:22:19;;;;;;;8.27;4.20;;;;;;;;;;5017412;28;20044;-67
2021/06/01 08:24:45;;;;;;;11.18;4.18;;;;;;;;;;5014815;28;20132;-67
2021/06/01 08:27:11;;;;;;;9.02;4.60;;;;;;;;;;5024105;28;20052;-67
2021/06/01 08:29:38;;;;;;;9.77;4.22;;;;;;;;;;5010218;28;20168;-67
2021/06/01 08:32:05;;;;;;;8.35;3.88;;;;;;;;;;5017392;28;20109;-67
2021/06/01 08:34:31;;;;;;;9.50;4.68;;;;;;;;;;5016983;28;20123;-67
2021/06/01 08:36:57;;;;;;;7.50;3.90;;;;;;;;;;5023121;28;20087;-67
2021/06/01 08:39:27;;;;;;;10.15;3.88;;;;;;;;;;5002290;28;20048;-67
2021/06/01 08:41:54;;;;;;;9.00;2.75;;;;;;;;;;5022789;28;20060;-67
2021/06/01 08:44:21;;;;;;;7.10;2.83;;;;;;;;;;5023759;28;20088;-67
2021/06/01 08:46:50;;;;;;;8.15;2.38;;;;;;;;;;5022168;28;20053;-67
2021/06/01 08:49:19;;;;;;;7.05;2.95;;;;;;;;;;5021168;28;20053;-67
2021/06/01 08:51:46;;;;;;;6.13;2.50;;;;;;;;;;5002979;28;20049;-67
2021/06/01 08:54:14;;;;;;;6.68;2.25;;;;;;;;;;5020800;28;20444;-67
2021/06/01 08:56:41;;;;;;;5.18;2.10;;;;;;;;;;5003568;28;20183;-67
2021/06/01 08:59:09;;;;;;;5.07;1.80;;;;;;;;;;5022175;28;20091;-67
2021/06/01 09:01:35;;;;;;;9.40;2.53;;;;;;;;;;5025771;28;20038;-67
2021/06/01 09:04:07;;;;;;;6.07;2.35;;;;;;;;;;5025058;28;20092;-67
2021/06/01 09:06:39;;;;;;;5.10;2.25;;;;;;;;;;5025944;28;20049;-67
2021/06/01 09:22:32;;;;;;;3.78;1.83;;;;;;;;;;5018839;28;20141;-68
2021/06/01 09:25:05;;;;;;;4.63;1.88;;;;;;;;;;5023886;28;20099;-68
2021/06/01 09:27:41;;;;;;;5.07;2.15;;;;;;;;;;5025181;28;20041;-68
2021/06/01 09:30:08;;;;;;;4.75;1.90;;;;;;;;;;5024904;28;20042;-68
2021/06/01 09:32:41;;;;;;;4.93;2.05;;;;;;;;;;5023495;28;20053;-68
2021/06/01 09:35:08;;;;;;;;;;;;;;;;;;5007327;28;21413;-68
2021/06/01 09:37:36;;;;;;;5.57;1.80;;;;;;;;;;5023316;28;19936;-68
2021/06/01 09:40:09;;;;;;;4.22;1.80;;;;;;;;;;5024782;28;20037;-68
2021/06/01 09:42:38;;;;;;;5.85;1.65;;;;;;;;;;5024341;28;20059;-68
2021/06/01 09:45:10;;;;;;;7.60;1.92;;;;;;;;;;5026586;28;20061;-68
2021/06/01 09:47:45;;;;;;;3.67;1.70;;;;;;;;;;5028077;28;20037;-68
2021/06/01 09:50:21;;;;;;;3.92;1.60;;;;;;;;;;5029290;28;20489;-68
2021/06/01 09:52:48;;;;;;;4.45;1.80;;;;;;;;;;5025693;28;20052;-68
2021/06/01 09:55:16;;;;;;;3.72;1.60;;;;;;;;;;5030092;28;20098;-68
2021/06/01 09:57:44;;;;;;;3.88;1.65;;;;;;;;;;5025799;28;20065;-68
2021/06/01 10:00:11;;;;;;;6.65;1.73;;;;;;;;;;5029241;28;20045;-67
2021/06/01 10:02:38;;;;;;;11.57;1.85;;;;;;;;;;5027465;28;20049;-67
2021/06/01 10:05:09;;;;;;;4.80;1.70;;;;;;;;;;5029038;28;20060;-67
2021/06/01 10:07:35;;;;;;;3.85;1.80;;;;;;;;;;5028169;28;20084;-67
2021/06/01 10:10:11;;;;;;;3.28;1.60;;;;;;;;;;5029403;28;20054;-67
2021/06/01 10:12:37;;;;;;;4.22;1.80;;;;;;;;;;5029699;28;20499;-67
2021/06/01 10:15:04;;;;;;;4.40;1.65;;;;;;;;;;5025534;28;20430;-67
2021/06/01 10:17:30;;;;;;;5.15;1.60;;;;;;;;;;5026583;28;20152;-68
2021/06/01 10:19:57;;;;;;;4.97;1.92;;;;;;;;;;5028453;28;20046;-67
2021/06/01 10:22:23;;;;;;;3.63;1.67;;;;;;;;;;5026545;28;20041;-67
2021/06/01 10:24:49;;;;;;;3.83;1.70;;;;;;;;;;5024379;28;20421;-67
2021/06/01 10:27:16;;;;;;;3.97;1.90;;;;;;;;;;5027053;28;20068;-67
2021/06/01 10:29:42;;;;;;;4.25;1.77;;;;;;;;;;5028898;28;20076;-67
2021/06/01 10:32:08;;;;;;;4.88;1.52;;;;;;;;;;5024991;28;20118;-67
2021/06/01 10:34:36;;;;;;;5.25;1.75;;;;;;;;;;5023217;28;20160;-67
2021/06/01 10:42:40;;;;;;;3.92;1.83;;;;;;;;;;5024516;28;20052;-67
2021/06/01 10:51:58;;;;;;;5.22;2.10;;;;;;;;;;5139801;27;20051;-67
2021/06/01 10:54:51;;;;;;;4.60;1.80;;;;;;;;;;5137123;27;20047;-67
2021/06/01 10:57:20;;;;;;;5.68;2.00;;;;;;;;;;5121719;27;20053;-67
2021/06/01 10:59:50;;;;;;;7.00;1.88;;;;;;;;;;5139797;27;20099;-67
2021/06/01 11:02:17;;;;;;;5.07;1.90;;;;;;;;;;5141894;27;20084;-67
2021/06/01 11:05:01;;;;;;;4.53;1.90;;;;;;;;;;5140150;27;20133;-67
2021/06/01 11:07:40;;;;;;;3.95;1.80;;;;;;;;;;5139750;27;20193;-67
2021/06/01 11:10:06;;;;;;;6.97;1.73;;;;;;;;;;5132187;27;20158;-67
2021/06/01 11:12:40;;;;;;;5.88;2.22;;;;;;;;;;5138476;27;20055;-67
2021/06/01 11:15:22;;;;;;;4.78;2.13;;;;;;;;;;5132870;27;20612;-66
2021/06/01 11:17:49;;;;;;;3.13;1.70;;;;;;;;;;5135047;27;20116;-67
2021/06/01 11:20:22;;;;;;;3.90;1.95;;;;;;;;;;5141462;27;20491;-67
2021/06/01 11:23:07;;;;;;;4.75;1.90;;;;;;;;;;5135104;27;20129;-67
2021/06/01 11:33:49;;;;;;;3.30;1.52;;;;;;;;;;5131950;27;20070;-67
2021/06/01 11:36:17;;;;;;;4.85;1.70;;;;;;;;;;5136937;27;20171;-67
2021/06/01 11:38:49;;;;;;;4.40;1.80;;;;;;;;;;5120173;27;20043;-67
2021/06/01 11:44:14;;;;;;;4.85;2.25;;;;;;;;;;5130438;27;20134;-67
2021/06/01 11:46:48;;;;;;;4.50;2.03;;;;;;;;;;5134621;27;20117;-67
2021/06/01 11:52:00;;;;;;;3.55;1.95;;;;;;;;;;5136394;27;20511;-67
2021/06/01 11:54:26;;;;;;;3.92;1.90;;;;;;;;;;5135041;27;20047;-67
2021/06/01 12:02:33;;;;;;;5.20;1.83;;;;;;;;;;5121988;27;20043;-67
2021/06/01 12:18:53;;;;;;;3.97;2.00;;;;;;;;;;5118901;27;20032;-67
2021/06/01 12:21:24;;;;;;;5.05;1.90;;;;;;;;;;5121830;27;20071;-67
2021/06/01 12:23:54;;;;;;;5.00;2.00;;;;;;;;;;5121237;27;20114;-67
2021/06/01 12:31:50;;;;;;;5.65;2.30;;;;;;;;;;5118810;27;20760;-67
2021/06/01 12:34:21;;;;;;;12.68;2.55;;;;;;;;;;5099462;27;20314;-67
2021/06/01 12:42:23;;;;;;;4.65;2.00;;;;;;;;;;5121310;27;20130;-67
2021/06/01 12:44:51;;;;;;;3.80;1.88;;;;;;;;;;5115860;27;20109;-67
2021/06/01 12:47:50;;;;;;;6.60;2.95;;;;;;;;;;5118275;27;20092;-67
2021/06/01 13:07:35;;;;;;;9.70;2.20;;;;;;;;;;5119350;27;20063;-67
2021/06/01 13:12:35;;;;;;;6.20;1.85;;;;;;;;;;5125986;27;20054;-67
2021/06/01 13:19:17;;;;;;;4.18;1.90;;;;;;;;;;5121079;27;20471;-67
2021/06/01 13:20:44;;;;;;;5.80;2.20;;;;;;;;;;5122210;27;20414;-67
2021/06/01 13:36:32;;;;;;;8.52;2.70;;;;;;;;;;5107930;27;20054;-67
2021/06/01 13:39:07;;;;;;;6.35;2.60;;;;;;;;;;5101494;27;20061;-67
2021/06/01 13:46:53;;;;;;;4.53;2.17;;;;;;;;;;5118380;27;20035;-69
2021/06/01 13:49:33;;;;;;;6.93;2.83;;;;;;;;;;5117580;27;20102;-69
2021/06/01 13:57:28;;;;;;;5.13;2.67;;;;;;;;;;5112653;27;20474;-69
2021/06/01 14:00:06;;;;;;;8.85;3.13;;;;;;;;;;5109217;27;20058;-69
2021/06/01 14:28:00;;;;;;;5.80;2.05;;;;;;;;;;5118016;27;20103;-67
2021/06/01 14:30:18;;;;;;;5.80;2.63;;;;;;;;;;5119748;27;20117;-67
2021/06/01 14:35:50;;;;;;;5.70;2.17;;;;;;;;;;5119030;27;21725;-67
2021/06/01 14:35:51;;;;;;;;;;;;;;;;;;5109211;27;20635;-67
2021/06/01 15:08:34;;;;;;;8.85;4.30;;;;;;;;;;5114032;27;20043;-67
2021/06/01 15:30:09;;;;;;;8.68;4.25;;;;;;;;;;5119109;27;20170;-66
2021/06/01 15:40:54;;;;;;;8.32;3.92;;;;;;;;;;5119729;27;20051;-66
2021/06/01 15:49:19;;;;;;;9.25;3.97;;;;;;;;;;5116701;27;20059;-66
2021/06/01 15:55:09;;;;;;;9.70;6.47;;;;;;;;;;5120808;27;20100;-66
2021/06/01 16:11:26;;;;;;;10.40;5.05;;;;;;;;;;5121006;27;20138;-66
2021/06/01 16:30:21;;;;;;;12.40;6.60;;;;;;;;;;5124454;27;20044;-66
2021/06/01 16:44:05;;;;;;;11.15;6.68;;;;;;;;;;5105496;27;20051;-67
2021/06/01 17:03:12;;;;;;;10.27;5.93;;;;;;;;;;5125288;27;20064;-67
2021/06/01 17:05:49;;;;;;;9.50;5.35;;;;;;;;;;5109737;27;20040;-67
2021/06/01 17:08:39;;;;;;;10.25;4.97;;;;;;;;;;5102242;27;20054;-67
2021/06/01 17:11:12;;;;;;;10.25;4.85;;;;;;;;;;5105770;27;20043;-67
2021/06/01 17:13:49;;;;;;;9.90;5.38;;;;;;;;;;5102898;27;20041;-67
2021/06/01 17:16:28;;;;;;;8.90;4.95;;;;;;;;;;5110168;27;20031;-67
2021/06/01 17:34:34;;;;;;;9.00;4.47;;;;;;;;;;5126604;27;20487;-67
2021/06/01 17:35:08;;;;;;;9.50;4.50;;;;;;;;;;5124909;27;20527;-66
2021/06/01 17:37:34;;;;;;;10.30;4.57;;;;;;;;;;5105280;27;20462;-67
2021/06/01 17:40:01;;;;;;;10.45;5.90;;;;;;;;;;5112599;27;20811;-67
2021/06/01 17:42:29;;;;;;;14.13;4.60;;;;;;;;;;5128543;27;20038;-67
2021/06/01 17:44:58;;;;;;;10.75;5.43;;;;;;;;;;5126304;27;20127;-66
2021/06/01 17:47:26;;;;;;;12.77;5.78;;;;;;;;;;5122500;27;20053;-67
2021/06/01 17:49:53;;;;;;;9.60;4.63;;;;;;;;;;5125081;27;20230;-67
2021/06/01 17:52:23;;;;;;;10.68;5.20;;;;;;;;;;5127604;27;20043;-67
2021/06/01 17:54:51;;;;;;;8.27;4.63;;;;;;;;;;5123180;27;20043;-67
2021/06/01 17:57:19;;;;;;;9.73;4.22;;;;;;;;;;5119480;27;20066;-66
2021/06/01 17:59:46;;;;;;;9.10;4.43;;;;;;;;;;5120555;27;20118;-67
2021/06/01 18:02:13;;;;;;;8.70;5.38;;;;;;;;;;5102421;27;20098;-67
2021/06/01 18:04:43;;;;;;;9.60;5.03;;;;;;;;;;5099432;27;20039;-67
2021/06/01 18:07:14;;;;;;;9.30;5.00;;;;;;;;;;5082679;27;20054;-67
2021/06/01 18:10:13;;;;;;;10.63;5.10;;;;;;;;;;5104134;27;20058;-67
2021/06/01 18:13:18;;;;;;;12.93;5.40;;;;;;;;;;5099902;27;20051;-67
2021/06/01 18:40:45;;;;;;;11.25;4.75;;;;;;;;;;5103748;27;20383;-67
2021/06/01 18:40:59;;;;;;;12.43;4.43;;;;;;;;;;5120897;27;20050;-67
2021/06/01 18:52:37;;;;;;;12.38;5.53;;;;;;;;;;5122098;28;20039;-67
2021/06/01 19:01:12;;;;;;;10.73;4.88;;;;;;;;;;5126547;28;20045;-67
2021/06/01 19:06:06;;;;;;;11.52;5.70;;;;;;;;;;5123449;27;20816;-67
2021/06/01 19:23:01;;;;;;;8.38;4.40;;;;;;;;;;5105973;27;20394;-66
2021/06/01 19:25:10;;;;;;;11.32;6.32;;;;;;;;;;5129594;27;20066;-67
2021/06/01 19:49:58;;;;;;;10.88;4.22;;;;;;;;;;5127089;27;20042;-67
2021/06/01 19:52:26;;;;;;;9.65;4.22;;;;;;;;;;5123550;27;20050;-67
2021/06/01 19:54:54;;;;;;;9.85;4.15;;;;;;;;;;5129073;27;20051;-67
2021/06/01 19:57:21;;;;;;;8.15;4.32;;;;;;;;;;5126868;27;20058;-67
2021/06/01 19:59:49;;;;;;;9.30;4.38;;;;;;;;;;5128852;27;20047;-67
2021/06/01 20:02:21;;;;;;;7.57;4.10;;;;;;;;;;5125929;27;20035;-67
2021/06/01 20:04:51;;;;;;;8.57;3.92;;;;;;;;;;5107002;27;20100;-67
2021/06/01 20:07:18;;;;;;;7.45;4.10;;;;;;;;;;5106287;27;20075;-66
2021/06/01 20:09:45;;;;;;;10.15;4.15;;;;;;;;;;5106121;27;21778;-66
2021/06/01 20:12:12;;;;;;;16.58;8.43;;;;;;;;;;5105451;27;20477;-67
2021/06/01 20:14:44;;;;;;;14.02;6.20;;;;;;;;;;5106758;27;20043;-66
2021/06/01 20:17:15;;;;;;;10.10;5.07;;;;;;;;;;5106027;27;20121;-66
2021/06/01 20:19:41;;;;;;;9.35;4.40;;;;;;;;;;5104231;27;20050;-67
2021/06/01 20:22:08;;;;;;;10.27;5.68;;;;;;;;;;5126866;27;20047;-66
2021/06/01 20:24:37;;;;;;;9.75;5.07;;;;;;;;;;5111066;27;20081;-67
2021/06/01 20:27:07;;;;;;;13.40;4.85;;;;;;;;;;5125939;27;20047;-66
2021/06/01 20:29:35;;;;;;;11.18;6.00;;;;;;;;;;5123185;27;20043;-67
2021/06/01 20:33:06;;;;;;;9.80;4.40;;;;;;;;;;5126289;27;20547;-66
2021/06/01 20:34:50;;;;;;;8.98;4.60;;;;;;;;;;5129639;27;20045;-67
2021/06/01 20:37:16;;;;;;;9.13;4.22;;;;;;;;;;5120777;27;20107;-67
2021/06/01 20:39:43;;;;;;;8.80;5.05;;;;;;;;;;5121958;27;20050;-66
2021/06/01 20:42:11;;;;;;;10.43;4.75;;;;;;;;;;5121846;27;20062;-66
2021/06/01 20:44:37;;;;;;;10.07;4.75;;;;;;;;;;5124495;27;20525;-67